メインページ
METAR-TAF:

METAR-TAF

空港 :

Bellaire, ミシガン州, アメリカ合衆国

緯度: 44-59-18N, 経度: 085-11-54W, 海抜: 190m

現時点の気象観測

当レポートは8分前の05:56(UTC)に作成
無風
気温 4°C
湿度 75%
気圧 1017 hPa
視程: 16.1km
晴天

METAR: KACB 040556Z AUTO 00000KT 10SM CLR 04/00 A3002 RMK AO2 T00431002 10137 20043 401661042

時間: 02:04 (06:04 UTC)


TAF: 見つかりません

4,000以上の空港の気象観測と天気予報(METAR報とTAF報)

利用可能な観測所は地図上に黄色い丸と赤い丸で示す。

丸の上にカーソルを重ねると観測所名を参照できる。

次にクリックすると気象観測と天気予報を参照できる。

マップの切り替え:黒色「×」印の緑ボタンをクリックして拡大、「-」印の緑ボタンをクリックして縮小、緑色の三角印をクリックして隣りの地図に切り替え


METAR-TAF: